Accueil
METAR-TAF:

METAR-TAF

Aéroports :

Aéroport Federico-Fellini

Rimini, Italie

latitude: 44-02N, longitude: 012-37E, altitude: 12 m

Observation

Le bulletin a été fait il y a 35 minutes, à 07:20 UTC
Vent 12 kt de ouest
Température 2°C
Humidité 93%
Pression 1014 hPa
Visibilité: 7000 m
Nuages épars à une hauteur de 2000 ft
Nuages fragmentés à une hauteur de 2500 ft
pluie faible

METAR: LIPR 140720Z 26012KT 7000 -RA SCT020 BKN025 02/01 Q1014

Heure: 08:55 (07:55 UTC)

Prévision

Le bulletin a été fait il y a 2 heures et 55 minutes, à 05:00 UTC
Prévision valable du 14 à 06 UTC au 14 à 15 UTC
Vent 10 kt de nord
Visibilité: 6000 m
Nuages fragmentés à une hauteur de 1500 ft
pluie

TAF: LIPR 140500Z 1406/1415 35010KT 6000 RA BKN015

Observations et prévisions météorologiques de plus de 4000 aéroports (messages METAR et TAF).

Les stations disponibles sont représentées par des disques jaunes et rouges sur la carte.

Passer la souris dessus pour voir le nom de la station.

Cliquer dessus pour voir les observations et prévisions météorologiques.

Pour changer de carte: cliquez sur les boutons verts avec une croix noire pour zoomer, sur le bouton vert avec un tiret pour effectuer un zoom arrière, ou sur les flèches vertes pour les cartes adjacentes.


METAR-TAF: